AirNav   Air Wisconsin Up To $57,000 Bonus
 
 899 users online  

4AL8 Milton Airport
Huntsville, Alabama, USA

GOING TO HUNTSVILLE?


FAA INFORMATION EFFECTIVE 11 AUGUST 2022

Location

FAA Identifier: 4AL8
Lat/Long: 34-29-25.9500N 086-40-24.3600W
34-29.432500N 086-40.406000W
34.4905417,-86.6734333
(estimated)
Elevation: 639 ft. / 195 m (estimated)
Variation: 00W (1985)
From city: 18 miles S of HUNTSVILLE, AL
Time zone: UTC -5 (UTC -6 during Standard Time)
Zip code: 35754

Airport Operations

Airport use: Private use. Permission required prior to landing
Activation date: 05/1976
Control tower: no
ARTCC: MEMPHIS CENTER
FSS: ANNISTON FLIGHT SERVICE STATION
Attendance: IREG
Wind indicator: yes
Segmented circle: no

Airport Communications

WX ASOS at HSV (10 nm NW): 121.25 (256-772-8074)
WX AWOS-3PT at CMD (16 nm SW): 124.175 (256-775-7476)
WX ASOS at DCU (17 nm NW): 118.375 (256-350-4270)

Nearby radio navigation aids

VOR radial/distance  VOR name  Freq  Var
RQZr184/18.5ROCKET VORTAC112.2002E

Airport Services

Runway Information

Runway 13/31

Dimensions: 2242 x 200 ft. / 683 x 61 m
Surface: turf
RUNWAY 13  RUNWAY 31
Latitude: 34-29.556000N34-29.309000N
Longitude: 086-40.572000W086-40.240000W
Elevation: 639.0 ft.637.0 ft.
Traffic pattern: leftleft
Obstructions: 75 ft. pline, 1000 ft. from runway500 ft. mtn, 5280 ft. from runway

Airport Ownership and Management from official FAA records

Ownership: Privately-owned
Owner: RICHARD D. MILTON
142 MILTON AIRPORT RD
LACEY SPRINGS, AL 35754
Phone (256) 261-8182
Manager: RICHARD D. MILTON
142 MILTON AIRPORT RD
LACEY SPRINGS, AL 35754
Phone (256) 261-8182
TELEPHONE AT HANGAR 256-566-6718 OR 256-261-8182.

Airport Operational Statistics

Aircraft based on the field: 4
Single engine airplanes: 4
    

Additional Remarks

FOR CD CTC HUNTSVILLE APCH AT 256-542-2070. WHEN APCH CLSD CTC MEMPHIS ARTCC AT 901-368-8453/8449.

Instrument Procedures

There are no published instrument procedures at 4AL8.

Some nearby airports with instrument procedures:

KHSV - Huntsville International Airport-Carl T Jones Field (10 nm NW)
KHUA - Redstone Army Airfield (11 nm N)
5M0 - Hartselle/Morgan County Regional Airport (14 nm W)
KCMD - Cullman Regional Airport/Folsom Field (16 nm SW)
KDCU - Pryor Field Regional Airport (17 nm NW)
 
Loc | Ops | Rwys | IFR | FBO | Links
Com | Nav | Svcs | Stats | Notes
Area around 4AL8 (Milton Airport)
 
Road maps at: MapQuest Bing Google
 
Aerial photo
No photo
 
Sectional chart

 
Airport distance calculator
Flying to Milton Airport? Find the distance to fly.

From to 4AL8

Sunrise and sunset
Times for 16-Aug-2022
 Local
(UTC-5)
 Zulu
(UTC)
Morning civil twilight05:4310:43
Sunrise06:0911:09
Sunset19:3300:33
Evening civil twilight19:5900:59

Current date and time
Zulu (UTC)  17-Aug-2022 03:47:29
Local (UTC-5)  16-Aug-2022 22:47:29
 
METAR
KHSV 
11nm NW 
170253Z 01005KT 10SM FEW043 OVC120 23/19 A3000 RMK AO2 SLP151 T02330194 51009
KHUA 
11nm N 
161959Z 35005KT 7SM SCT065 25/21 A2997 RMK $
KCMD 
16nm SW 
170335Z AUTO 00000KT 10SM SCT120 22/20 A3001 RMK AO2
KDCU 
17nm NW 
170253Z AUTO 01004KT 10SM FEW042 BKN100 22/20 A3000 RMK AO2 SLP153 T02220200 51007 TSNO
TAF
KHSV 
11nm NW 
161720Z 1618/1718 36010G16KT P6SM VCSH OVC100 TEMPO 1618/1622 4SM -SHRA BR OVC025 FM170200 01004KT P6SM BKN120
KHUA 
11nm N 
162000Z 1620/1802 VRB06KT 9999 FEW035 QNH2994INS TEMPO 1623/1702 8000 -SHRA SCT020 TX28/1621Z TN20/1711Z LAST NO AMDS AFT 1700 NEXT 1712
NOTAMs
Click for the latest NOTAMs
NOTAMs are issued by the DoD/FAA and will open in a separate window not controlled by AirNav.

 

 
 

Would you like to see your business listed on this page?

 If your business provides an interesting product or service to pilots, flight crews, aircraft, or users of the Milton Airport, you should consider listing it here.  To start the listing process, click on the button below
 
Add a business
 

Other Pages about Milton Airport

Update a link
 
Copyright © AirNav, LLC. All rights reserved. Privacy Policy  Contact